Airfield :
LOGIN :

Register | Disclaimer

   EN    FR    IT 

 










Legend :    VFR   Marginal VFR   IFR   Intensive IFR   Very Intensive IFR
Visi :
Ceiling :
>= 8 km
>= 3000ft
5 to 8 km
1000 to 3000 ft
1500m to 5 km
500 to 1000 ft
800 to 1500m
200 to 500 ft
< 800m
< 200 ft
Symbols :   Thunderstorms  Fog  Heavy snow  Heavy precipitations  Wind > 20 kt
SIGMETs :     Misc.  Thunderstorms  Icing  Turbulence  Mountain Waves  Volcanic Ashes






- Airport Elevation : 423 ft
- IATA code : PIS


LFBI - Poitiers

CURRENT METAR :
  • 311730Z AUTO 07011KT 040V110 CAVOK 24/07 Q1013 NOSIG

EXPIRED METARs :
  • 311700Z AUTO 05014KT CAVOK 25/08 Q1013 NOSIG
  • 311630Z AUTO 06012KT 020V100 CAVOK 25/07 Q1013 NOSIG
  • 311600Z AUTO 07010KT 020V110 CAVOK 25/07 Q1014 NOSIG
  • 311530Z AUTO 07011KT 030V110 CAVOK 26/07 Q1014 NOSIG

TAF TAF LFBI
Valid from the 31 at 18:00 until the 01 at 18:00 UTC


311700Z 3118/0118 07010KT CAVOK
BECMG 3120/3122 05005KT
BECMG 0110/0113 06010KT



MET'MAP, your aeronautical weather chart ! - Copyright ORBIFLY December 2007 - Disclaimer

ORBIFLY MET'MAP TEAM :

Programming & Development : Alexandra Zaïnal
Concept & original design : Baudouin d'Aumeries
Assistance for programming : Marc-Olivier Méhu
Technical & hardware support : Manuel Goepfert

Contact : metmap@orbifly.com




SOURCES & CREDITS :

   NOAA